createdAt,value
2018-07-03T00:00:20.069Z,39.38
2018-07-03T00:02:13.467Z,39.38
2018-07-03T00:03:13.448Z,39.38
2018-07-03T00:05:07.026Z,39.38
2018-07-03T00:06:07.150Z,39.38
2018-07-03T00:08:00.158Z,39.38
2018-07-03T00:09:00.142Z,39.38
2018-07-03T00:10:53.718Z,39.38
2018-07-03T00:11:53.833Z,39.38
2018-07-03T00:13:47.435Z,39.38
2018-07-03T00:14:47.178Z,39.38
2018-07-03T00:16:40.412Z,39.38
2018-07-03T00:17:40.520Z,39.38
2018-07-03T00:19:33.576Z,39.38
2018-07-03T00:20:33.883Z,39.38
2018-07-03T00:22:27.451Z,33.75
2018-07-03T00:23:27.243Z,33.75
2018-07-03T00:25:20.853Z,33.75
2018-07-03T00:26:20.243Z,33.75
2018-07-03T00:28:13.826Z,33.75
2018-07-03T00:29:13.942Z,33.75
2018-07-03T00:31:06.953Z,33.75
2018-07-03T00:32:07.295Z,33.75
2018-07-03T00:34:00.501Z,28.13
2018-07-03T00:35:00.640Z,28.13
2018-07-03T00:36:53.691Z,28.13
2018-07-03T00:37:53.990Z,28.13
2018-07-03T00:39:47.554Z,28.13
2018-07-03T00:40:47.006Z,28.13
2018-07-03T00:42:40.338Z,28.13
2018-07-03T00:43:40.673Z,28.13
2018-07-03T00:45:34.250Z,28.13
2018-07-03T00:46:33.679Z,22.50
2018-07-03T00:48:27.970Z,22.50
2018-07-03T00:49:27.032Z,22.50
2018-07-03T00:51:20.588Z,22.50
2018-07-03T00:52:20.722Z,22.50
2018-07-03T00:54:13.736Z,16.88
2018-07-03T00:55:14.072Z,16.88
2018-07-03T00:57:07.337Z,16.88
2018-07-03T00:58:07.082Z,16.88
2018-07-03T01:00:00.462Z,16.88
2018-07-03T01:01:00.778Z,16.88
2018-07-03T01:02:54.364Z,16.88
2018-07-03T01:03:53.799Z,16.88
2018-07-03T01:05:47.503Z,16.88
2018-07-03T01:06:47.141Z,16.88
2018-07-03T01:08:41.082Z,16.88
2018-07-03T01:09:40.839Z,16.88
2018-07-03T01:11:33.863Z,16.88
2018-07-03T01:12:33.833Z,16.88
2018-07-03T01:14:27.274Z,16.88
2018-07-03T01:15:27.060Z,16.88
2018-07-03T01:17:20.081Z,16.88
2018-07-03T01:18:20.068Z,16.88
2018-07-03T01:20:14.007Z,16.88
2018-07-03T01:21:13.761Z,16.88
2018-07-03T01:23:06.919Z,16.88
2018-07-03T01:24:07.085Z,16.88
2018-07-03T01:26:00.157Z,16.88
2018-07-03T01:26:59.631Z,16.88
2018-07-03T01:28:53.328Z,16.88
2018-07-03T01:29:52.973Z,16.88
2018-07-03T01:31:46.879Z,16.88
2018-07-03T01:32:46.648Z,16.88
2018-07-03T01:34:40.010Z,16.88
2018-07-03T01:35:39.660Z,16.88
2018-07-03T01:37:33.240Z,16.88
2018-07-03T01:38:33.361Z,16.88
2018-07-03T01:40:26.731Z,22.50
2018-07-03T01:41:26.722Z,22.50
2018-07-03T01:43:20.370Z,22.50
2018-07-03T01:44:19.735Z,22.50
2018-07-03T01:46:13.420Z,22.50
2018-07-03T01:47:13.404Z,22.50
2018-07-03T01:49:06.628Z,22.50
2018-07-03T01:50:06.420Z,22.50
2018-07-03T01:52:00.115Z,22.50
2018-07-03T01:52:59.780Z,22.50
2018-07-03T01:54:53.367Z,22.50
2018-07-03T01:55:53.456Z,22.50
2018-07-03T01:57:46.518Z,22.50
2018-07-03T01:58:46.825Z,22.50
2018-07-03T02:00:40.401Z,22.50
2018-07-03T02:01:40.145Z,16.88
2018-07-03T02:03:33.168Z,16.88
2018-07-03T02:04:33.510Z,16.88
2018-07-03T02:06:26.746Z,16.88
2018-07-03T02:07:26.856Z,16.88
2018-07-03T02:09:20.216Z,16.88
2018-07-03T02:10:20.203Z,16.88
2018-07-03T02:12:13.770Z,16.88
2018-07-03T02:13:13.524Z,5.63
2018-07-03T02:15:06.583Z,5.63
2018-07-03T02:16:06.912Z,0.00
2018-07-03T02:18:00.211Z,5.63
2018-07-03T02:18:59.938Z,5.63
2018-07-03T02:20:54.228Z,5.63
2018-07-03T02:21:53.272Z,11.25
2018-07-03T02:23:47.805Z,16.88
2018-07-03T02:24:46.643Z,5.63
2018-07-03T02:26:40.336Z,5.63
2018-07-03T02:27:40.319Z,5.63
2018-07-03T02:29:33.893Z,5.63
2018-07-03T02:30:33.323Z,11.25
2018-07-03T02:32:26.665Z,16.88
2018-07-03T02:33:27.021Z,16.88
2018-07-03T02:35:20.254Z,5.63
2018-07-03T02:36:20.026Z,0.00
2018-07-03T02:38:13.721Z,5.63
2018-07-03T02:39:13.461Z,5.63
2018-07-03T02:41:07.305Z,5.63
2018-07-03T02:42:06.708Z,5.63
2018-07-03T02:44:00.080Z,0.00
2018-07-03T02:45:00.404Z,0.00
2018-07-03T02:46:54.250Z,0.00
2018-07-03T02:47:53.411Z,0.00
2018-07-03T02:49:47.112Z,5.63
2018-07-03T02:50:47.091Z,5.63
2018-07-03T02:52:40.837Z,5.63
2018-07-03T02:53:40.432Z,5.63
2018-07-03T02:55:34.059Z,5.63
2018-07-03T02:56:33.450Z,5.63
2018-07-03T02:58:27.350Z,5.63
2018-07-03T02:59:27.141Z,11.25
2018-07-03T03:01:20.144Z,5.63
2018-07-03T03:02:20.492Z,5.63
2018-07-03T03:04:13.699Z,5.63
2018-07-03T03:05:13.843Z,5.63
2018-07-03T03:07:06.865Z,16.88
2018-07-03T03:08:06.858Z,16.88
2018-07-03T03:10:00.442Z,16.88
2018-07-03T03:11:00.186Z,16.88
2018-07-03T03:12:53.888Z,11.25
2018-07-03T03:13:53.863Z,16.88
2018-07-03T03:15:47.452Z,16.88
2018-07-03T03:16:46.876Z,16.88
2018-07-03T03:18:40.249Z,11.25
2018-07-03T03:19:40.551Z,11.25
2018-07-03T03:21:34.123Z,16.88
2018-07-03T03:22:33.937Z,11.25
2018-07-03T03:24:27.289Z,11.25
2018-07-03T03:25:26.933Z,11.25
2018-07-03T03:27:20.882Z,11.25
2018-07-03T03:28:20.304Z,11.25
2018-07-03T03:30:13.634Z,11.25
2018-07-03T03:31:13.963Z,11.25
2018-07-03T03:33:07.549Z,11.25
2018-07-03T03:34:07.328Z,11.25
2018-07-03T03:36:00.666Z,11.25
2018-07-03T03:37:00.678Z,11.25
2018-07-03T03:38:53.917Z,11.25
2018-07-03T03:39:53.706Z,11.25
2018-07-03T03:41:47.046Z,16.88
2018-07-03T03:42:47.041Z,16.88
2018-07-03T03:44:40.913Z,16.88
2018-07-03T03:45:40.718Z,16.88
2018-07-03T03:47:33.714Z,16.88
2018-07-03T03:48:33.733Z,16.88
2018-07-03T03:50:27.289Z,16.88
2018-07-03T03:51:27.077Z,16.88
2018-07-03T03:53:20.806Z,11.25
2018-07-03T03:54:20.424Z,11.25
2018-07-03T03:56:13.971Z,11.25
2018-07-03T03:57:13.758Z,11.25
2018-07-03T03:59:07.114Z,11.25
2018-07-03T04:00:07.115Z,11.25
2018-07-03T04:02:01.006Z,11.25
2018-07-03T04:03:00.805Z,11.25
2018-07-03T04:04:53.817Z,16.88
2018-07-03T04:05:53.804Z,11.25
2018-07-03T04:07:47.385Z,11.25
2018-07-03T04:08:47.475Z,16.88
2018-07-03T04:10:39.841Z,16.88
2018-07-03T04:11:39.829Z,16.88
2018-07-03T04:13:32.115Z,11.25
2018-07-03T04:14:32.185Z,16.88
2018-07-03T04:16:24.204Z,11.25
2018-07-03T04:17:24.195Z,11.25
2018-07-03T04:19:18.109Z,11.25
2018-07-03T04:20:17.564Z,11.25
2018-07-03T04:22:10.889Z,11.25
2018-07-03T04:23:10.900Z,11.25
2018-07-03T04:25:03.438Z,11.25
2018-07-03T04:26:03.215Z,11.25
2018-07-03T04:27:55.899Z,11.25
2018-07-03T04:28:55.575Z,11.25
2018-07-03T04:30:47.972Z,11.25
2018-07-03T04:31:47.436Z,11.25
2018-07-03T04:33:40.109Z,11.25
2018-07-03T04:34:40.094Z,11.25
2018-07-03T04:36:32.874Z,11.25
2018-07-03T04:37:32.430Z,11.25
2018-07-03T04:39:24.779Z,11.25
2018-07-03T04:40:24.446Z,11.25
2018-07-03T04:42:17.083Z,11.25
2018-07-03T04:43:16.797Z,11.25
2018-07-03T04:45:09.135Z,11.25
2018-07-03T04:46:09.128Z,11.25
2018-07-03T04:48:01.651Z,11.25
2018-07-03T04:49:01.455Z,11.25
2018-07-03T04:50:54.128Z,5.63
2018-07-03T04:51:54.152Z,5.63
2018-07-03T04:53:46.698Z,11.25
2018-07-03T04:54:46.480Z,11.25
2018-07-03T04:56:39.852Z,5.63
2018-07-03T04:57:39.488Z,5.63
2018-07-03T04:59:32.064Z,11.25
2018-07-03T05:00:32.395Z,5.63
2018-07-03T05:02:24.155Z,5.63
2018-07-03T05:03:24.478Z,5.63
2018-07-03T05:05:17.108Z,5.63
2018-07-03T05:06:16.906Z,5.63
2018-07-03T05:08:09.258Z,5.63
2018-07-03T05:09:09.222Z,5.63
2018-07-03T05:11:01.559Z,5.63
2018-07-03T05:12:01.582Z,5.63
2018-07-03T05:13:53.939Z,5.63
2018-07-03T05:14:53.930Z,5.63
2018-07-03T05:16:46.506Z,5.63
2018-07-03T05:17:45.912Z,5.63
2018-07-03T05:19:38.621Z,5.63
2018-07-03T05:20:38.593Z,5.63
2018-07-03T05:22:30.829Z,5.63
2018-07-03T05:23:30.960Z,5.63
2018-07-03T05:25:23.878Z,5.63
2018-07-03T05:26:23.293Z,5.63
2018-07-03T05:28:15.503Z,5.63
2018-07-03T05:29:15.282Z,5.63
2018-07-03T05:31:07.971Z,5.63
2018-07-03T05:32:07.971Z,5.63
2018-07-03T05:34:00.181Z,5.63
2018-07-03T05:34:59.943Z,5.63
2018-07-03T05:36:52.336Z,5.63
2018-07-03T05:37:52.647Z,5.63
2018-07-03T05:39:44.855Z,5.63
2018-07-03T05:40:44.970Z,5.63
2018-07-03T05:42:36.967Z,5.63
2018-07-03T05:43:37.320Z,5.63
2018-07-03T05:45:29.859Z,5.63
2018-07-03T05:46:29.322Z,5.63
2018-07-03T05:48:22.985Z,5.63
2018-07-03T05:49:23.004Z,5.63
2018-07-03T05:51:16.238Z,5.63
2018-07-03T05:52:15.990Z,5.63
2018-07-03T05:54:08.853Z,5.63
2018-07-03T05:55:08.846Z,5.63
2018-07-03T05:57:02.018Z,5.63
2018-07-03T05:58:01.525Z,5.63
2018-07-03T05:59:53.961Z,5.63
2018-07-03T06:00:53.976Z,5.63
2018-07-03T06:02:46.512Z,5.63
2018-07-03T06:03:46.329Z,5.63
2018-07-03T06:05:38.636Z,5.63
2018-07-03T06:06:38.294Z,5.63
2018-07-03T06:08:31.325Z,5.63
2018-07-03T06:09:30.653Z,5.63
2018-07-03T06:11:23.313Z,5.63
2018-07-03T06:12:22.946Z,5.63
2018-07-03T06:14:15.534Z,5.63
2018-07-03T06:15:15.629Z,5.63
2018-07-03T06:17:07.988Z,5.63
2018-07-03T06:18:07.653Z,5.63
2018-07-03T06:20:00.196Z,5.63
2018-07-03T06:21:00.332Z,5.63
2018-07-03T06:22:52.664Z,5.63
2018-07-03T06:23:52.660Z,5.63
2018-07-03T06:25:45.479Z,5.63
2018-07-03T06:26:44.637Z,5.63
2018-07-03T06:28:36.984Z,5.63
2018-07-03T06:29:37.331Z,5.63
2018-07-03T06:31:30.918Z,5.63
2018-07-03T06:32:30.663Z,5.63
2018-07-03T06:34:23.611Z,5.63
2018-07-03T06:35:23.013Z,5.63
2018-07-03T06:37:15.257Z,5.63
2018-07-03T06:38:15.345Z,5.63
2018-07-03T06:40:07.220Z,5.63
2018-07-03T06:41:07.216Z,5.63
2018-07-03T06:42:59.395Z,5.63
2018-07-03T06:43:59.526Z,5.63
2018-07-03T06:45:51.538Z,5.63
2018-07-03T06:46:51.532Z,5.63
2018-07-03T06:48:44.429Z,5.63
2018-07-03T06:49:43.842Z,5.63
2018-07-03T06:51:36.573Z,5.63
2018-07-03T06:52:36.524Z,5.63
2018-07-03T06:54:28.601Z,5.63
2018-07-03T06:55:28.384Z,5.63
2018-07-03T06:57:20.772Z,5.63
2018-07-03T06:58:20.765Z,5.63
2018-07-03T07:00:13.968Z,5.63
2018-07-03T07:01:14.096Z,5.63
2018-07-03T07:03:07.048Z,5.63
2018-07-03T07:04:06.444Z,5.63
2018-07-03T07:05:58.974Z,5.63
2018-07-03T07:06:58.758Z,5.63
2018-07-03T07:08:50.982Z,5.63
2018-07-03T07:09:51.108Z,5.63
2018-07-03T07:11:43.315Z,5.63
2018-07-03T07:12:43.073Z,5.63
2018-07-03T07:14:35.801Z,5.63
2018-07-03T07:15:35.456Z,5.63
2018-07-03T07:17:27.988Z,5.63
2018-07-03T07:18:28.136Z,5.63
2018-07-03T07:20:20.127Z,5.63
2018-07-03T07:21:20.464Z,5.63
2018-07-03T07:23:12.720Z,5.63
2018-07-03T07:24:12.446Z,5.63
2018-07-03T07:26:05.142Z,5.63
2018-07-03T07:27:05.160Z,5.63
2018-07-03T07:28:58.710Z,5.63
2018-07-03T07:29:58.504Z,5.63
2018-07-03T07:31:51.087Z,5.63
2018-07-03T07:32:50.465Z,5.63
2018-07-03T07:34:43.630Z,5.63
2018-07-03T07:35:43.165Z,5.63
2018-07-03T07:37:35.274Z,5.63
2018-07-03T07:38:35.507Z,5.63
2018-07-03T07:40:27.906Z,5.63
2018-07-03T07:41:28.040Z,5.63
2018-07-03T07:43:21.051Z,5.63
2018-07-03T07:44:21.390Z,5.63
2018-07-03T07:46:13.598Z,5.63
2018-07-03T07:47:13.715Z,5.63
2018-07-03T07:49:05.730Z,5.63
2018-07-03T07:50:05.713Z,5.63
2018-07-03T07:51:58.652Z,5.63
2018-07-03T07:52:58.407Z,5.63
2018-07-03T07:54:50.454Z,5.63
2018-07-03T07:55:50.759Z,5.63
2018-07-03T07:57:44.024Z,0.00
2018-07-03T07:58:43.741Z,0.00
2018-07-03T08:00:37.442Z,0.00
2018-07-03T08:01:37.074Z,0.00
2018-07-03T08:03:30.993Z,0.00
2018-07-03T08:04:30.435Z,0.00
2018-07-03T08:06:23.771Z,5.63
2018-07-03T08:07:23.774Z,5.63
2018-07-03T08:09:16.913Z,5.63
2018-07-03T08:10:16.230Z,5.63
2018-07-03T08:12:08.605Z,5.63
2018-07-03T08:13:08.921Z,5.63
2018-07-03T08:15:01.468Z,5.63
2018-07-03T08:16:01.220Z,5.63
2018-07-03T08:17:53.271Z,5.63
2018-07-03T08:18:53.220Z,5.63
2018-07-03T08:20:45.802Z,5.63
2018-07-03T08:21:45.908Z,5.63
2018-07-03T08:23:37.953Z,5.63
2018-07-03T08:24:38.262Z,5.63
2018-07-03T08:26:31.106Z,5.63
2018-07-03T08:27:30.256Z,5.63
2018-07-03T08:29:22.607Z,5.63
2018-07-03T08:30:22.929Z,5.63
2018-07-03T08:32:16.520Z,5.63
2018-07-03T08:33:16.278Z,5.63
2018-07-03T08:35:10.222Z,5.63
2018-07-03T08:36:09.622Z,5.63
2018-07-03T08:38:03.219Z,5.63
2018-07-03T08:39:02.965Z,5.63
2018-07-03T08:40:56.311Z,5.63
2018-07-03T08:41:56.364Z,5.63
2018-07-03T08:43:49.518Z,5.63
2018-07-03T08:44:49.354Z,5.63
2018-07-03T08:46:42.254Z,5.63
2018-07-03T08:47:41.665Z,5.63
2018-07-03T08:49:35.567Z,5.63
2018-07-03T08:50:35.346Z,5.63
2018-07-03T08:52:28.706Z,5.63
2018-07-03T08:53:28.352Z,5.63
2018-07-03T08:55:22.258Z,5.63
2018-07-03T08:56:21.708Z,5.63
2018-07-03T08:58:14.371Z,5.63
2018-07-03T08:59:14.032Z,5.63
2018-07-03T09:01:07.971Z,5.63
2018-07-03T09:02:07.728Z,5.63
2018-07-03T09:04:00.747Z,5.63
2018-07-03T09:05:00.730Z,5.63
2018-07-03T09:06:54.302Z,5.63
2018-07-03T09:07:54.419Z,5.63
2018-07-03T09:09:47.428Z,5.63
2018-07-03T09:10:47.759Z,5.63
2018-07-03T09:12:41.012Z,0.00
2018-07-03T09:13:41.122Z,0.00
2018-07-03T09:15:34.468Z,0.00
2018-07-03T09:16:34.462Z,0.00
2018-07-03T09:18:27.696Z,0.00
2018-07-03T09:19:27.488Z,0.00
2018-07-03T09:21:20.707Z,0.00
2018-07-03T09:22:20.372Z,0.00
2018-07-03T09:24:13.263Z,0.00
2018-07-03T09:25:13.034Z,0.00
2018-07-03T09:27:06.049Z,0.00
2018-07-03T09:28:06.364Z,0.00
2018-07-03T09:29:58.573Z,0.00
2018-07-03T09:30:58.718Z,0.00
2018-07-03T09:32:51.044Z,0.00
2018-07-03T09:33:51.057Z,0.00
2018-07-03T09:35:44.640Z,0.00
2018-07-03T09:36:44.088Z,0.00
2018-07-03T09:38:36.449Z,0.00
2018-07-03T09:39:36.417Z,0.00
2018-07-03T09:41:30.016Z,5.63
2018-07-03T09:42:29.848Z,5.63
2018-07-03T09:44:22.438Z,5.63
2018-07-03T09:45:22.091Z,5.63
2018-07-03T09:47:15.680Z,5.63
2018-07-03T09:48:15.793Z,5.63
2018-07-03T09:50:08.812Z,5.63
2018-07-03T09:51:08.807Z,5.63
2018-07-03T09:53:01.967Z,5.63
2018-07-03T09:54:01.474Z,5.63
2018-07-03T09:55:53.813Z,5.63
2018-07-03T09:56:53.446Z,5.63
2018-07-03T09:58:47.076Z,5.63
2018-07-03T09:59:46.839Z,5.63
2018-07-03T10:01:39.784Z,5.63
2018-07-03T10:02:39.519Z,5.63
2018-07-03T10:04:32.753Z,5.63
2018-07-03T10:05:32.863Z,5.63
2018-07-03T10:07:25.469Z,5.63
2018-07-03T10:08:24.867Z,5.63
2018-07-03T10:10:18.444Z,5.63
2018-07-03T10:11:18.227Z,5.63
2018-07-03T10:13:11.590Z,5.63
2018-07-03T10:14:11.572Z,5.63
2018-07-03T10:16:05.156Z,5.63
2018-07-03T10:17:04.914Z,5.63
2018-07-03T10:18:58.292Z,5.63
2018-07-03T10:19:58.621Z,5.63
2018-07-03T10:21:50.849Z,5.63
2018-07-03T10:22:50.949Z,5.63
2018-07-03T10:24:42.499Z,5.63
2018-07-03T10:25:42.490Z,5.63
2018-07-03T10:27:36.645Z,5.63
2018-07-03T10:28:36.150Z,5.63
2018-07-03T10:30:29.249Z,5.63
2018-07-03T10:31:29.177Z,5.63
2018-07-03T10:33:22.748Z,5.63
2018-07-03T10:34:22.864Z,5.63
2018-07-03T10:36:14.855Z,5.63
2018-07-03T10:37:15.178Z,5.63
2018-07-03T10:39:08.411Z,5.63
2018-07-03T10:40:08.549Z,5.63
2018-07-03T10:42:01.892Z,5.63
2018-07-03T10:43:01.527Z,5.63
2018-07-03T10:44:54.464Z,5.63
2018-07-03T10:45:54.223Z,5.63
2018-07-03T10:47:46.581Z,5.63
2018-07-03T10:48:46.329Z,5.63
2018-07-03T10:50:40.397Z,0.00
2018-07-03T10:51:39.581Z,0.00
2018-07-03T10:53:32.983Z,0.00
2018-07-03T10:54:32.932Z,0.00
2018-07-03T10:56:25.684Z,0.00
2018-07-03T10:57:25.802Z,0.00
2018-07-03T10:59:18.147Z,0.00
2018-07-03T11:00:18.135Z,0.00
2018-07-03T11:02:11.669Z,0.00
2018-07-03T11:03:11.469Z,0.00
2018-07-03T11:05:04.830Z,0.00
2018-07-03T11:06:04.824Z,0.00
2018-07-03T11:07:57.936Z,0.00
2018-07-03T11:08:56.816Z,0.00
2018-07-03T11:10:50.168Z,0.00
2018-07-03T11:11:50.195Z,0.00
2018-07-03T11:13:44.072Z,0.00
2018-07-03T11:14:43.529Z,0.00
2018-07-03T11:16:37.823Z,0.00
2018-07-03T11:17:36.867Z,0.00
2018-07-03T11:19:30.789Z,0.00
2018-07-03T11:20:30.537Z,0.00
2018-07-03T11:22:23.913Z,0.00
2018-07-03T11:23:23.882Z,0.00
2018-07-03T11:25:16.443Z,0.00
2018-07-03T11:26:15.901Z,0.00
2018-07-03T11:28:09.260Z,0.00
2018-07-03T11:29:09.250Z,0.00
2018-07-03T11:31:03.103Z,0.00
2018-07-03T11:32:02.916Z,0.00
2018-07-03T11:33:56.543Z,0.00
2018-07-03T11:34:56.278Z,0.00
2018-07-03T11:36:49.885Z,0.00
2018-07-03T11:37:49.657Z,0.00
2018-07-03T11:39:41.988Z,0.00
2018-07-03T11:40:41.629Z,0.00
2018-07-03T11:42:34.508Z,0.00
2018-07-03T11:43:34.313Z,0.00
2018-07-03T11:45:26.322Z,0.00
2018-07-03T11:46:26.633Z,0.00
2018-07-03T11:48:20.188Z,0.00
2018-07-03T11:49:19.646Z,0.00
2018-07-03T11:51:13.339Z,0.00
2018-07-03T11:52:13.313Z,0.00
2018-07-03T11:54:05.564Z,0.00
2018-07-03T11:55:05.637Z,0.00
2018-07-03T11:56:58.581Z,0.00
2018-07-03T11:57:57.657Z,0.00
2018-07-03T11:59:50.227Z,0.00
2018-07-03T12:00:49.987Z,0.00
2018-07-03T12:02:42.753Z,0.00
2018-07-03T12:03:42.657Z,0.00
2018-07-03T12:05:36.206Z,0.00
2018-07-03T12:06:36.020Z,0.00
2018-07-03T12:08:29.374Z,0.00
2018-07-03T12:09:29.366Z,0.00
2018-07-03T12:11:22.907Z,0.00
2018-07-03T12:12:22.712Z,0.00
2018-07-03T12:14:16.064Z,0.00
2018-07-03T12:15:15.707Z,0.00
2018-07-03T12:17:10.154Z,0.00
2018-07-03T12:18:09.047Z,0.00
2018-07-03T12:20:02.409Z,0.00
2018-07-03T12:21:02.733Z,0.00
2018-07-03T12:22:56.294Z,0.00
2018-07-03T12:23:55.782Z,0.00
2018-07-03T12:25:49.431Z,0.00
2018-07-03T12:26:49.444Z,0.00
2018-07-03T12:28:42.762Z,0.00
2018-07-03T12:29:42.455Z,0.00
2018-07-03T12:31:35.130Z,0.00
2018-07-03T12:32:35.117Z,0.00
2018-07-03T12:34:28.334Z,0.00
2018-07-03T12:35:28.115Z,0.00
2018-07-03T12:37:21.828Z,0.00
2018-07-03T12:38:21.805Z,0.00
2018-07-03T12:40:15.046Z,0.00
2018-07-03T12:41:15.161Z,0.00
2018-07-03T12:43:08.095Z,0.00
2018-07-03T12:44:07.572Z,0.00
2018-07-03T12:46:01.098Z,0.00
2018-07-03T12:47:00.511Z,0.00
2018-07-03T12:48:54.211Z,0.00
2018-07-03T12:49:53.882Z,0.00
2018-07-03T12:51:47.389Z,0.00
2018-07-03T12:52:47.546Z,0.00
2018-07-03T12:54:40.649Z,0.00
2018-07-03T12:55:40.901Z,0.00
2018-07-03T12:57:34.470Z,0.00
2018-07-03T12:58:33.907Z,0.00
2018-07-03T13:00:27.252Z,0.00
2018-07-03T13:01:27.259Z,0.00
2018-07-03T13:03:20.802Z,0.00
2018-07-03T13:04:20.609Z,0.00
2018-07-03T13:06:14.903Z,0.00
2018-07-03T13:07:13.927Z,0.00
2018-07-03T13:09:06.819Z,0.00
2018-07-03T13:10:06.632Z,0.00
2018-07-03T13:11:58.185Z,0.00
2018-07-03T13:12:58.170Z,0.00
2018-07-03T13:14:52.332Z,0.00
2018-07-03T13:15:51.886Z,0.00
2018-07-03T13:17:44.871Z,0.00
2018-07-03T13:18:45.208Z,0.00
2018-07-03T13:20:37.302Z,0.00
2018-07-03T13:21:37.065Z,0.00
2018-07-03T13:23:30.001Z,0.00
2018-07-03T13:24:29.404Z,0.00
2018-07-03T13:26:22.974Z,0.00
2018-07-03T13:27:22.751Z,0.00
2018-07-03T13:29:15.684Z,0.00
2018-07-03T13:30:15.092Z,0.00
2018-07-03T13:32:08.330Z,0.00
2018-07-03T13:33:08.440Z,0.00
2018-07-03T13:35:00.993Z,0.00
2018-07-03T13:36:00.639Z,0.00
2018-07-03T13:37:54.540Z,0.00
2018-07-03T13:38:53.981Z,0.00
2018-07-03T13:40:47.677Z,0.00
2018-07-03T13:41:47.643Z,0.00
2018-07-03T13:43:40.920Z,0.00
2018-07-03T13:44:40.685Z,0.00
2018-07-03T13:46:34.050Z,0.00
2018-07-03T13:47:34.039Z,0.00
2018-07-03T13:49:26.923Z,0.00
2018-07-03T13:50:26.374Z,0.00
2018-07-03T13:52:20.047Z,0.00
2018-07-03T13:53:19.714Z,0.00
2018-07-03T13:55:14.224Z,0.00
2018-07-03T13:56:13.403Z,0.00
2018-07-03T13:58:06.419Z,0.00
2018-07-03T13:59:06.415Z,0.00
2018-07-03T14:00:59.995Z,0.00
2018-07-03T14:01:59.760Z,0.00
2018-07-03T14:03:53.091Z,0.00
2018-07-03T14:04:53.439Z,0.00
2018-07-03T14:06:45.643Z,0.00
2018-07-03T14:07:45.453Z,0.00
2018-07-03T14:09:38.789Z,0.00
2018-07-03T14:10:39.105Z,0.00
2018-07-03T14:12:31.351Z,0.00
2018-07-03T14:13:31.460Z,0.00
2018-07-03T14:15:24.796Z,0.00
2018-07-03T14:16:24.450Z,0.00
2018-07-03T14:18:17.363Z,0.00
2018-07-03T14:19:17.118Z,0.00
2018-07-03T14:21:10.493Z,0.00
2018-07-03T14:22:10.495Z,0.00
2018-07-03T14:24:04.064Z,0.00
2018-07-03T14:25:03.490Z,0.00
2018-07-03T14:26:56.860Z,0.00
2018-07-03T14:27:56.842Z,0.00
2018-07-03T14:29:50.735Z,0.00
2018-07-03T14:30:50.504Z,0.00
2018-07-03T14:32:43.871Z,0.00
2018-07-03T14:33:43.537Z,0.00
2018-07-03T14:35:36.077Z,0.00
2018-07-03T14:36:36.211Z,0.00
2018-07-03T14:38:29.236Z,0.00
2018-07-03T14:39:29.541Z,0.00
2018-07-03T14:41:23.126Z,0.00
2018-07-03T14:42:22.562Z,0.00
2018-07-03T14:44:15.256Z,0.00
2018-07-03T14:45:15.238Z,0.00
2018-07-03T14:47:08.484Z,0.00
2018-07-03T14:48:08.570Z,0.00
2018-07-03T14:50:01.944Z,0.00
2018-07-03T14:51:01.598Z,0.00
2018-07-03T14:52:55.138Z,0.00
2018-07-03T14:53:54.926Z,0.00
2018-07-03T14:55:48.604Z,0.00
2018-07-03T14:56:48.282Z,0.00
2018-07-03T14:58:41.854Z,0.00
2018-07-03T14:59:41.621Z,0.00
2018-07-03T15:01:35.399Z,0.00
2018-07-03T15:02:35.314Z,0.00
2018-07-03T15:04:28.902Z,0.00
2018-07-03T15:05:28.638Z,0.00
2018-07-03T15:07:22.261Z,0.00
2018-07-03T15:08:21.649Z,0.00
2018-07-03T15:10:15.562Z,0.00
2018-07-03T15:11:15.342Z,0.00
2018-07-03T15:13:08.230Z,0.00
2018-07-03T15:14:07.875Z,0.00
2018-07-03T15:16:01.769Z,0.00
2018-07-03T15:17:01.560Z,0.00
2018-07-03T15:18:54.909Z,0.00
2018-07-03T15:19:54.568Z,0.00
2018-07-03T15:21:47.502Z,0.00
2018-07-03T15:22:46.912Z,0.00
2018-07-03T15:24:40.194Z,0.00
2018-07-03T15:25:39.605Z,0.00
2018-07-03T15:27:33.181Z,0.00
2018-07-03T15:28:32.953Z,0.00
2018-07-03T15:30:26.058Z,0.00
2018-07-03T15:31:25.955Z,0.00
2018-07-03T15:33:19.547Z,0.00
2018-07-03T15:34:19.644Z,0.00
2018-07-03T15:36:12.664Z,0.00
2018-07-03T15:37:12.648Z,0.00
2018-07-03T15:39:05.205Z,0.00
2018-07-03T15:40:04.984Z,0.00
2018-07-03T15:41:58.665Z,0.00
2018-07-03T15:42:58.672Z,0.00
2018-07-03T15:44:51.856Z,0.00
2018-07-03T15:45:52.006Z,0.00
2018-07-03T15:47:45.020Z,0.00
2018-07-03T15:48:45.361Z,0.00
2018-07-03T15:50:38.933Z,0.00
2018-07-03T15:51:38.376Z,0.00
2018-07-03T15:53:32.051Z,0.00
2018-07-03T15:54:32.055Z,0.00
2018-07-03T15:56:24.314Z,0.00
2018-07-03T15:57:24.386Z,0.00
2018-07-03T15:59:17.735Z,0.00
2018-07-03T16:00:17.754Z,0.00
2018-07-03T16:02:10.962Z,0.00
2018-07-03T16:03:10.764Z,0.00
2018-07-03T16:05:04.111Z,0.00
2018-07-03T16:06:04.089Z,0.00
2018-07-03T16:07:58.015Z,0.00
2018-07-03T16:08:57.795Z,0.00
2018-07-03T16:10:50.810Z,0.00
2018-07-03T16:11:51.133Z,0.00
2018-07-03T16:13:43.363Z,0.00
2018-07-03T16:14:43.158Z,0.00
2018-07-03T16:16:37.075Z,0.00
2018-07-03T16:17:36.473Z,0.00
2018-07-03T16:19:30.968Z,0.00
2018-07-03T16:20:29.840Z,0.00
2018-07-03T16:22:23.192Z,0.00
2018-07-03T16:23:23.492Z,0.00
2018-07-03T16:25:16.753Z,0.00
2018-07-03T16:26:16.855Z,0.00
2018-07-03T16:28:10.195Z,0.00
2018-07-03T16:29:09.887Z,0.00
2018-07-03T16:31:03.784Z,0.00
2018-07-03T16:32:03.183Z,0.00
2018-07-03T16:33:56.554Z,0.00
2018-07-03T16:34:56.876Z,0.00
2018-07-03T16:36:50.222Z,0.00
2018-07-03T16:37:49.905Z,0.00
2018-07-03T16:39:43.261Z,0.00
2018-07-03T16:40:43.249Z,0.00
2018-07-03T16:42:37.709Z,0.00
2018-07-03T16:43:36.911Z,0.00
2018-07-03T16:45:29.996Z,0.00
2018-07-03T16:46:29.927Z,0.00
2018-07-03T16:48:23.828Z,0.00
2018-07-03T16:49:23.620Z,0.00
2018-07-03T16:51:15.994Z,0.00
2018-07-03T16:52:15.987Z,0.00
2018-07-03T16:54:09.553Z,0.00
2018-07-03T16:55:08.993Z,0.00
2018-07-03T16:57:02.667Z,0.00
2018-07-03T16:58:02.332Z,0.00
2018-07-03T16:59:56.246Z,0.00
2018-07-03T17:00:56.005Z,0.00
2018-07-03T17:02:49.358Z,0.00
2018-07-03T17:03:49.347Z,0.00
2018-07-03T17:05:42.926Z,0.00
2018-07-03T17:06:42.381Z,0.00
2018-07-03T17:08:36.045Z,0.00
2018-07-03T17:09:36.041Z,0.00
2018-07-03T17:11:29.878Z,0.00
2018-07-03T17:12:29.393Z,0.00
2018-07-03T17:14:22.758Z,0.00
2018-07-03T17:15:22.394Z,0.00
2018-07-03T17:17:15.971Z,0.00
2018-07-03T17:18:15.766Z,0.00
2018-07-03T17:20:09.118Z,0.00
2018-07-03T17:21:09.440Z,0.00
2018-07-03T17:23:03.011Z,0.00
2018-07-03T17:24:02.450Z,0.00
2018-07-03T17:25:55.732Z,0.00
2018-07-03T17:26:54.771Z,0.00
2018-07-03T17:28:47.295Z,0.00
2018-07-03T17:29:47.460Z,0.00
2018-07-03T17:31:39.453Z,0.00
2018-07-03T17:32:39.784Z,0.00
2018-07-03T17:34:32.965Z,0.00
2018-07-03T17:35:32.787Z,0.00
2018-07-03T17:37:25.490Z,0.00
2018-07-03T17:38:25.473Z,0.00
2018-07-03T17:40:18.007Z,0.00
2018-07-03T17:41:17.800Z,0.00
2018-07-03T17:43:10.156Z,0.00
2018-07-03T17:44:10.146Z,0.00
2018-07-03T17:46:02.928Z,0.00
2018-07-03T17:47:02.678Z,0.00
2018-07-03T17:48:56.032Z,0.00
2018-07-03T17:49:56.034Z,0.00
2018-07-03T17:51:48.583Z,0.00
2018-07-03T17:52:48.689Z,0.00
2018-07-03T17:54:40.706Z,0.00
2018-07-03T17:55:41.041Z,0.00
2018-07-03T17:57:34.605Z,0.00
2018-07-03T17:58:34.033Z,0.00
2018-07-03T18:00:27.609Z,0.00
2018-07-03T18:01:27.721Z,0.00
2018-07-03T18:03:19.931Z,0.00
2018-07-03T18:04:19.713Z,0.00
2018-07-03T18:06:12.612Z,0.00
2018-07-03T18:07:12.238Z,0.00
2018-07-03T18:09:05.840Z,0.00
2018-07-03T18:10:05.590Z,0.00
2018-07-03T18:11:58.800Z,0.00
2018-07-03T18:12:58.799Z,0.00
2018-07-03T18:14:52.371Z,0.00
2018-07-03T18:15:51.825Z,0.00
2018-07-03T18:17:45.747Z,0.00
2018-07-03T18:18:45.505Z,0.00
2018-07-03T18:20:38.858Z,0.00
2018-07-03T18:21:39.161Z,0.00
2018-07-03T18:23:32.182Z,0.00
2018-07-03T18:24:31.856Z,0.00
2018-07-03T18:26:26.030Z,0.00
2018-07-03T18:27:25.191Z,0.00
2018-07-03T18:29:18.902Z,0.00
2018-07-03T18:30:18.888Z,0.00
2018-07-03T18:32:12.081Z,0.00
2018-07-03T18:33:12.211Z,0.00
2018-07-03T18:35:05.568Z,0.00
2018-07-03T18:36:05.570Z,0.00
2018-07-03T18:37:58.818Z,0.00
2018-07-03T18:38:58.561Z,0.00
2018-07-03T18:40:52.867Z,0.00
2018-07-03T18:41:52.263Z,0.00
2018-07-03T18:43:46.108Z,0.00
2018-07-03T18:44:45.611Z,0.00
2018-07-03T18:46:38.650Z,0.00
2018-07-03T18:47:38.971Z,0.00
2018-07-03T18:49:32.530Z,0.00
2018-07-03T18:50:31.971Z,0.00
2018-07-03T18:52:25.669Z,0.00
2018-07-03T18:53:25.306Z,0.00
2018-07-03T18:55:19.206Z,0.00
2018-07-03T18:56:18.994Z,0.00
2018-07-03T18:58:12.337Z,0.00
2018-07-03T18:59:12.332Z,0.00
2018-07-03T19:01:05.926Z,0.00
2018-07-03T19:02:05.345Z,0.00